sensor_id;sensor_type;location;lat;lon;timestamp;pressure;altitude;pressure_sealevel;temperature;humidity
15914;BME280;8055;51.930;8.840;2024-02-04T00:01:17;76755.97;;;-145.72;100.00
15914;BME280;8055;51.930;8.840;2024-02-04T00:03:42;76751.81;;;-145.72;100.00
15914;BME280;8055;51.930;8.840;2024-02-04T00:06:08;76745.63;;;-145.72;100.00
15914;BME280;8055;51.930;8.840;2024-02-04T00:08:33;76747.69;;;-145.72;100.00
15914;BME280;8055;51.930;8.840;2024-02-04T00:10:58;76749.75;;;-145.72;100.00
15914;BME280;8055;51.930;8.840;2024-02-04T00:13:24;76747.69;;;-145.72;100.00
15914;BME280;8055;51.930;8.840;2024-02-04T00:15:49;76753.91;;;-145.72;100.00
15914;BME280;8055;51.930;8.840;2024-02-04T00:18:14;76764.25;;;-145.72;100.00
15914;BME280;8055;51.930;8.840;2024-02-04T00:20:40;76766.31;;;-145.72;100.00
15914;BME280;8055;51.930;8.840;2024-02-04T00:23:05;76762.19;;;-145.72;100.00
15914;BME280;8055;51.930;8.840;2024-02-04T00:25:31;76766.31;;;-145.72;100.00
15914;BME280;8055;51.930;8.840;2024-02-04T00:27:56;76760.09;;;-145.72;100.00
15914;BME280;8055;51.930;8.840;2024-02-04T00:30:22;76764.25;;;-145.72;100.00
15914;BME280;8055;51.930;8.840;2024-02-04T00:32:47;76766.31;;;-145.72;100.00
15914;BME280;8055;51.930;8.840;2024-02-04T00:35:12;76766.31;;;-145.72;100.00
15914;BME280;8055;51.930;8.840;2024-02-04T00:37:38;76764.25;;;-145.72;100.00
15914;BME280;8055;51.930;8.840;2024-02-04T00:40:03;76764.25;;;-145.72;100.00
15914;BME280;8055;51.930;8.840;2024-02-04T00:42:29;76760.09;;;-145.72;100.00
15914;BME280;8055;51.930;8.840;2024-02-04T00:44:54;76768.38;;;-145.72;100.00
15914;BME280;8055;51.930;8.840;2024-02-04T00:47:19;76770.44;;;-145.72;100.00
15914;BME280;8055;51.930;8.840;2024-02-04T00:49:45;76766.31;;;-145.72;100.00
15914;BME280;8055;51.930;8.840;2024-02-04T00:52:10;76772.53;;;-145.72;100.00
15914;BME280;8055;51.930;8.840;2024-02-04T00:54:35;76760.09;;;-145.72;100.00
15914;BME280;8055;51.930;8.840;2024-02-04T00:57:01;76755.97;;;-145.72;100.00
15914;BME280;8055;51.930;8.840;2024-02-04T00:59:26;76747.69;;;-145.72;100.00
15914;BME280;8055;51.930;8.840;2024-02-04T01:01:52;76751.81;;;-145.72;100.00
15914;BME280;8055;51.930;8.840;2024-02-04T01:04:18;76751.81;;;-145.72;100.00
15914;BME280;8055;51.930;8.840;2024-02-04T01:06:43;76749.75;;;-145.72;100.00
15914;BME280;8055;51.930;8.840;2024-02-04T01:09:08;76751.81;;;-145.72;100.00
15914;BME280;8055;51.930;8.840;2024-02-04T01:11:34;76753.91;;;-145.72;100.00
15914;BME280;8055;51.930;8.840;2024-02-04T01:13:59;76749.75;;;-145.72;100.00
15914;BME280;8055;51.930;8.840;2024-02-04T01:16:25;76739.41;;;-145.72;100.00
15914;BME280;8055;51.930;8.840;2024-02-04T01:18:51;76737.34;;;-145.72;100.00
15914;BME280;8055;51.930;8.840;2024-02-04T01:21:17;76743.53;;;-145.72;100.00
15914;BME280;8055;51.930;8.840;2024-02-04T01:23:42;76739.41;;;-145.72;100.00
15914;BME280;8055;51.930;8.840;2024-02-04T01:26:07;76731.13;;;-145.72;100.00
15914;BME280;8055;51.930;8.840;2024-02-04T01:28:33;76727.00;;;-145.72;100.00
15914;BME280;8055;51.930;8.840;2024-02-04T01:30:58;76737.34;;;-145.72;100.00
15914;BME280;8055;51.930;8.840;2024-02-04T01:33:24;76731.13;;;-145.72;100.00
15914;BME280;8055;51.930;8.840;2024-02-04T01:35:49;76731.13;;;-145.72;100.00
15914;BME280;8055;51.930;8.840;2024-02-04T01:38:15;76731.13;;;-145.72;100.00
15914;BME280;8055;51.930;8.840;2024-02-04T01:40:40;76733.19;;;-145.72;100.00
15914;BME280;8055;51.930;8.840;2024-02-04T01:43:06;76739.41;;;-145.72;100.00
15914;BME280;8055;51.930;8.840;2024-02-04T01:45:31;76727.00;;;-145.72;100.00
15914;BME280;8055;51.930;8.840;2024-02-04T01:47:56;76731.13;;;-145.72;100.00
15914;BME280;8055;51.930;8.840;2024-02-04T01:50:22;76729.06;;;-145.72;100.00
15914;BME280;8055;51.930;8.840;2024-02-04T01:52:48;76714.56;;;-145.72;100.00
15914;BME280;8055;51.930;8.840;2024-02-04T01:55:14;76716.66;;;-145.72;100.00
15914;BME280;8055;51.930;8.840;2024-02-04T01:57:40;76706.28;;;-145.72;100.00
15914;BME280;8055;51.930;8.840;2024-02-04T02:00:06;76706.28;;;-145.72;100.00
15914;BME280;8055;51.930;8.840;2024-02-04T02:02:39;76698.00;;;-145.72;100.00
15914;BME280;8055;51.930;8.840;2024-02-04T02:05:04;76693.88;;;-145.72;100.00
15914;BME280;8055;51.930;8.840;2024-02-04T02:07:30;76693.88;;;-145.72;100.00
15914;BME280;8055;51.930;8.840;2024-02-04T02:09:56;76669.03;;;-145.72;100.00
15914;BME280;8055;51.930;8.840;2024-02-04T02:12:26;76673.19;;;-145.72;100.00
15914;BME280;8055;51.930;8.840;2024-02-04T02:14:59;76662.81;;;-145.72;100.00
15914;BME280;8055;51.930;8.840;2024-02-04T02:17:38;76664.91;;;-145.72;100.00
15914;BME280;8055;51.930;8.840;2024-02-04T02:20:12;76656.63;;;-145.72;100.00
15914;BME280;8055;51.930;8.840;2024-02-04T02:22:50;76642.13;;;-145.72;100.00
15914;BME280;8055;51.930;8.840;2024-02-04T02:25:19;76627.66;;;-145.72;100.00
15914;BME280;8055;51.930;8.840;2024-02-04T02:27:47;76627.66;;;-145.72;100.00
15914;BME280;8055;51.930;8.840;2024-02-04T02:30:12;76623.50;;;-145.72;100.00
15914;BME280;8055;51.930;8.840;2024-02-04T02:32:38;76586.25;;;-145.72;100.00
15914;BME280;8055;51.930;8.840;2024-02-04T02:35:03;76598.66;;;-145.72;100.00
15914;BME280;8055;51.930;8.840;2024-02-04T02:37:43;76577.97;;;-145.72;100.00
15914;BME280;8055;51.930;8.840;2024-02-04T02:40:21;76590.38;;;-145.72;100.00
15914;BME280;8055;51.930;8.840;2024-02-04T02:42:48;76582.13;;;-145.72;100.00
15914;BME280;8055;51.930;8.840;2024-02-04T02:45:16;76565.56;;;-145.72;100.00
15914;BME280;8055;51.930;8.840;2024-02-04T02:47:43;76571.75;;;-145.72;100.00
15914;BME280;8055;51.930;8.840;2024-02-04T02:50:09;76567.63;;;-145.72;100.00
15914;BME280;8055;51.930;8.840;2024-02-04T02:52:35;76561.41;;;-145.72;100.00
15914;BME280;8055;51.930;8.840;2024-02-04T02:55:00;76569.69;;;-145.72;100.00
15914;BME280;8055;51.930;8.840;2024-02-04T02:57:25;76569.69;;;-145.72;100.00
15914;BME280;8055;51.930;8.840;2024-02-04T02:59:51;76567.63;;;-145.72;100.00
15914;BME280;8055;51.930;8.840;2024-02-04T03:02:16;76559.34;;;-145.72;100.00
15914;BME280;8055;51.930;8.840;2024-02-04T03:04:42;76559.34;;;-145.72;100.00
15914;BME280;8055;51.930;8.840;2024-02-04T03:07:07;76557.28;;;-145.72;100.00
15914;BME280;8055;51.930;8.840;2024-02-04T03:09:33;76557.28;;;-145.72;100.00
15914;BME280;8055;51.930;8.840;2024-02-04T03:11:58;76557.28;;;-145.72;100.00
15914;BME280;8055;51.930;8.840;2024-02-04T03:14:24;76544.84;;;-145.72;100.00
15914;BME280;8055;51.930;8.840;2024-02-04T03:16:49;76549.00;;;-145.72;100.00
15914;BME280;8055;51.930;8.840;2024-02-04T03:19:15;76563.47;;;-145.72;100.00
15914;BME280;8055;51.930;8.840;2024-02-04T03:21:40;76549.00;;;-145.72;100.00
15914;BME280;8055;51.930;8.840;2024-02-04T03:24:05;76549.00;;;-145.72;100.00
15914;BME280;8055;51.930;8.840;2024-02-04T03:26:31;76544.84;;;-145.72;100.00
15914;BME280;8055;51.930;8.840;2024-02-04T03:28:56;76551.06;;;-145.72;100.00
15914;BME280;8055;51.930;8.840;2024-02-04T03:31:24;76567.63;;;-145.72;100.00
15914;BME280;8055;51.930;8.840;2024-02-04T03:33:50;76555.22;;;-145.72;100.00
15914;BME280;8055;51.930;8.840;2024-02-04T03:36:19;76573.84;;;-145.72;100.00
15914;BME280;8055;51.930;8.840;2024-02-04T03:38:44;76567.63;;;-145.72;100.00
15914;BME280;8055;51.930;8.840;2024-02-04T03:41:10;76575.91;;;-145.72;100.00
15914;BME280;8055;51.930;8.840;2024-02-04T03:43:38;76565.56;;;-145.72;100.00
15914;BME280;8055;51.930;8.840;2024-02-04T03:46:03;76565.56;;;-145.72;100.00
15914;BME280;8055;51.930;8.840;2024-02-04T03:48:29;76563.47;;;-145.72;100.00
15914;BME280;8055;51.930;8.840;2024-02-04T03:50:54;76565.56;;;-145.72;100.00
15914;BME280;8055;51.930;8.840;2024-02-04T03:53:20;76569.69;;;-145.72;100.00
15914;BME280;8055;51.930;8.840;2024-02-04T03:55:48;76569.69;;;-145.72;100.00
15914;BME280;8055;51.930;8.840;2024-02-04T03:58:13;76571.75;;;-145.72;100.00
15914;BME280;8055;51.930;8.840;2024-02-04T04:00:38;76569.69;;;-145.72;100.00
15914;BME280;8055;51.930;8.840;2024-02-04T04:03:04;76569.69;;;-145.72;100.00
15914;BME280;8055;51.930;8.840;2024-02-04T04:05:29;76569.69;;;-145.72;100.00
15914;BME280;8055;51.930;8.840;2024-02-04T04:07:54;76580.03;;;-145.72;100.00
15914;BME280;8055;51.930;8.840;2024-02-04T04:10:20;76582.13;;;-145.72;100.00
15914;BME280;8055;51.930;8.840;2024-02-04T04:12:45;76567.63;;;-145.72;100.00
15914;BME280;8055;51.930;8.840;2024-02-04T04:15:10;76575.91;;;-145.72;100.00
15914;BME280;8055;51.930;8.840;2024-02-04T04:17:36;76584.19;;;-145.72;100.00
15914;BME280;8055;51.930;8.840;2024-02-04T04:20:01;76586.25;;;-145.72;100.00
15914;BME280;8055;51.930;8.840;2024-02-04T04:22:26;76590.38;;;-145.72;100.00
15914;BME280;8055;51.930;8.840;2024-02-04T04:24:52;76598.66;;;-145.72;100.00
15914;BME280;8055;51.930;8.840;2024-02-04T04:27:17;76604.88;;;-145.72;100.00
15914;BME280;8055;51.930;8.840;2024-02-04T04:29:42;76606.94;;;-145.72;100.00
15914;BME280;8055;51.930;8.840;2024-02-04T04:32:08;76611.09;;;-145.72;100.00
15914;BME280;8055;51.930;8.840;2024-02-04T04:34:33;76615.22;;;-145.72;100.00
15914;BME280;8055;51.930;8.840;2024-02-04T04:36:58;76606.94;;;-145.72;100.00
15914;BME280;8055;51.930;8.840;2024-02-04T04:39:24;76604.88;;;-145.72;100.00
15914;BME280;8055;51.930;8.840;2024-02-04T04:41:49;76606.94;;;-145.72;100.00
15914;BME280;8055;51.930;8.840;2024-02-04T04:44:14;76611.09;;;-145.72;100.00
15914;BME280;8055;51.930;8.840;2024-02-04T04:46:40;76621.44;;;-145.72;100.00
15914;BME280;8055;51.930;8.840;2024-02-04T04:49:06;76615.22;;;-145.72;100.00
15914;BME280;8055;51.930;8.840;2024-02-04T04:51:31;76638.00;;;-145.72;100.00
15914;BME280;8055;51.930;8.840;2024-02-04T04:53:57;76652.47;;;-145.72;100.00
15914;BME280;8055;51.930;8.840;2024-02-04T04:56:22;76648.34;;;-145.72;100.00
15914;BME280;8055;51.930;8.840;2024-02-04T04:58:48;76660.75;;;-145.72;100.00
15914;BME280;8055;51.930;8.840;2024-02-04T05:01:15;76652.47;;;-145.72;100.00
15914;BME280;8055;51.930;8.840;2024-02-04T05:03:40;76644.19;;;-145.72;100.00
15914;BME280;8055;51.930;8.840;2024-02-04T05:06:05;76654.56;;;-145.72;100.00
15914;BME280;8055;51.930;8.840;2024-02-04T05:08:31;76666.97;;;-145.72;100.00
15914;BME280;8055;51.930;8.840;2024-02-04T05:10:56;76654.56;;;-145.72;100.00
15914;BME280;8055;51.930;8.840;2024-02-04T05:13:21;76671.09;;;-145.72;100.00
15914;BME280;8055;51.930;8.840;2024-02-04T05:15:47;76669.03;;;-145.72;100.00
15914;BME280;8055;51.930;8.840;2024-02-04T05:18:12;76664.91;;;-145.72;100.00
15914;BME280;8055;51.930;8.840;2024-02-04T05:20:37;76664.91;;;-145.72;100.00
15914;BME280;8055;51.930;8.840;2024-02-04T05:23:03;76681.47;;;-145.72;100.00
15914;BME280;8055;51.930;8.840;2024-02-04T05:25:28;76669.03;;;-145.72;100.00
15914;BME280;8055;51.930;8.840;2024-02-04T05:27:54;76673.19;;;-145.72;100.00
15914;BME280;8055;51.930;8.840;2024-02-04T05:30:19;76664.91;;;-145.72;100.00
15914;BME280;8055;51.930;8.840;2024-02-04T05:32:44;76660.75;;;-145.72;100.00
15914;BME280;8055;51.930;8.840;2024-02-04T05:35:10;76654.56;;;-145.72;100.00
15914;BME280;8055;51.930;8.840;2024-02-04T05:37:35;76642.13;;;-145.72;100.00
15914;BME280;8055;51.930;8.840;2024-02-04T05:40:02;76648.34;;;-145.72;100.00
15914;BME280;8055;51.930;8.840;2024-02-04T05:42:27;76644.19;;;-145.72;100.00
15914;BME280;8055;51.930;8.840;2024-02-04T05:44:52;76642.13;;;-145.72;100.00
15914;BME280;8055;51.930;8.840;2024-02-04T05:47:18;76633.84;;;-145.72;100.00
15914;BME280;8055;51.930;8.840;2024-02-04T05:49:44;76627.66;;;-145.72;100.00
15914;BME280;8055;51.930;8.840;2024-02-04T05:52:09;76606.94;;;-145.72;100.00
15914;BME280;8055;51.930;8.840;2024-02-04T05:54:38;76617.28;;;-145.72;100.00
15914;BME280;8055;51.930;8.840;2024-02-04T05:57:04;76625.56;;;-145.72;100.00
15914;BME280;8055;51.930;8.840;2024-02-04T05:59:30;76623.50;;;-145.72;100.00
15914;BME280;8055;51.930;8.840;2024-02-04T06:01:55;76609.00;;;-145.72;100.00
15914;BME280;8055;51.930;8.840;2024-02-04T06:04:20;76604.88;;;-145.72;100.00
15914;BME280;8055;51.930;8.840;2024-02-04T06:06:46;76596.59;;;-145.72;100.00
15914;BME280;8055;51.930;8.840;2024-02-04T06:09:11;76613.16;;;-145.72;100.00
15914;BME280;8055;51.930;8.840;2024-02-04T06:11:36;76625.56;;;-145.72;100.00
15914;BME280;8055;51.930;8.840;2024-02-04T06:14:02;76625.56;;;-145.72;100.00
15914;BME280;8055;51.930;8.840;2024-02-04T06:16:27;76604.88;;;-145.72;100.00
15914;BME280;8055;51.930;8.840;2024-02-04T06:18:52;76600.75;;;-145.72;100.00
15914;BME280;8055;51.930;8.840;2024-02-04T06:21:20;76604.88;;;-145.72;100.00
15914;BME280;8055;51.930;8.840;2024-02-04T06:23:46;76609.00;;;-145.72;100.00
15914;BME280;8055;51.930;8.840;2024-02-04T06:26:11;76600.75;;;-145.72;100.00
15914;BME280;8055;51.930;8.840;2024-02-04T06:28:36;76590.38;;;-145.72;100.00
15914;BME280;8055;51.930;8.840;2024-02-04T06:31:01;76611.09;;;-145.72;100.00
15914;BME280;8055;51.930;8.840;2024-02-04T06:33:27;76594.53;;;-145.72;100.00
15914;BME280;8055;51.930;8.840;2024-02-04T06:35:53;76596.59;;;-145.72;100.00
15914;BME280;8055;51.930;8.840;2024-02-04T06:38:18;76604.88;;;-145.72;100.00
15914;BME280;8055;51.930;8.840;2024-02-04T06:40:44;76600.75;;;-145.72;100.00
15914;BME280;8055;51.930;8.840;2024-02-04T06:43:09;76598.66;;;-145.72;100.00
15914;BME280;8055;51.930;8.840;2024-02-04T06:45:34;76590.38;;;-145.72;100.00
15914;BME280;8055;51.930;8.840;2024-02-04T06:48:00;76577.97;;;-145.72;100.00
15914;BME280;8055;51.930;8.840;2024-02-04T06:50:25;76592.47;;;-145.72;100.00
15914;BME280;8055;51.930;8.840;2024-02-04T06:52:51;76598.66;;;-145.72;100.00
15914;BME280;8055;51.930;8.840;2024-02-04T06:55:16;76604.88;;;-145.72;100.00
15914;BME280;8055;51.930;8.840;2024-02-04T06:57:41;76598.66;;;-145.72;100.00
15914;BME280;8055;51.930;8.840;2024-02-04T07:00:07;76588.31;;;-145.72;100.00
15914;BME280;8055;51.930;8.840;2024-02-04T07:02:37;76569.69;;;-145.72;100.00
15914;BME280;8055;51.930;8.840;2024-02-04T07:05:03;76571.75;;;-145.72;100.00
15914;BME280;8055;51.930;8.840;2024-02-04T07:07:28;76569.69;;;-145.72;100.00
15914;BME280;8055;51.930;8.840;2024-02-04T07:09:53;76567.63;;;-145.72;100.00
15914;BME280;8055;51.930;8.840;2024-02-04T07:12:19;76588.31;;;-145.72;100.00
15914;BME280;8055;51.930;8.840;2024-02-04T07:14:44;76586.25;;;-145.72;100.00
15914;BME280;8055;51.930;8.840;2024-02-04T07:17:09;76590.38;;;-145.72;100.00
15914;BME280;8055;51.930;8.840;2024-02-04T07:19:37;76590.38;;;-145.72;100.00
15914;BME280;8055;51.930;8.840;2024-02-04T07:22:03;76586.25;;;-145.72;100.00
15914;BME280;8055;51.930;8.840;2024-02-04T07:24:28;76582.13;;;-145.72;100.00
15914;BME280;8055;51.930;8.840;2024-02-04T07:26:53;76582.13;;;-145.72;100.00
15914;BME280;8055;51.930;8.840;2024-02-04T07:29:19;76575.91;;;-145.72;100.00
15914;BME280;8055;51.930;8.840;2024-02-04T07:31:44;76584.19;;;-145.72;100.00
15914;BME280;8055;51.930;8.840;2024-02-04T07:34:09;76582.13;;;-145.72;100.00
15914;BME280;8055;51.930;8.840;2024-02-04T07:36:35;76580.03;;;-145.72;100.00
15914;BME280;8055;51.930;8.840;2024-02-04T07:39:00;76577.97;;;-145.72;100.00
15914;BME280;8055;51.930;8.840;2024-02-04T07:41:28;76567.63;;;-145.72;100.00
15914;BME280;8055;51.930;8.840;2024-02-04T07:43:54;76549.00;;;-145.72;100.00
15914;BME280;8055;51.930;8.840;2024-02-04T07:46:19;76551.06;;;-145.72;100.00
15914;BME280;8055;51.930;8.840;2024-02-04T07:48:44;76528.31;;;-145.72;100.00
15914;BME280;8055;51.930;8.840;2024-02-04T07:51:10;76544.84;;;-145.72;100.00
15914;BME280;8055;51.930;8.840;2024-02-04T07:53:35;76540.72;;;-145.72;100.00
15914;BME280;8055;51.930;8.840;2024-02-04T07:56:02;76551.06;;;-145.72;100.00
15914;BME280;8055;51.930;8.840;2024-02-04T07:58:29;76540.72;;;-145.72;100.00
15914;BME280;8055;51.930;8.840;2024-02-04T08:00:54;76544.84;;;-145.72;100.00
15914;BME280;8055;51.930;8.840;2024-02-04T08:03:19;76538.66;;;-145.72;100.00
15914;BME280;8055;51.930;8.840;2024-02-04T08:05:45;76549.00;;;-145.72;100.00
15914;BME280;8055;51.930;8.840;2024-02-04T08:08:10;76567.63;;;-145.72;100.00
15914;BME280;8055;51.930;8.840;2024-02-04T08:10:35;76559.34;;;-145.72;100.00
15914;BME280;8055;51.930;8.840;2024-02-04T08:13:01;76586.25;;;-145.72;100.00
15914;BME280;8055;51.930;8.840;2024-02-04T08:15:27;76586.25;;;-145.72;100.00
15914;BME280;8055;51.930;8.840;2024-02-04T08:17:52;76586.25;;;-145.72;100.00
15914;BME280;8055;51.930;8.840;2024-02-04T08:20:18;76577.97;;;-145.72;100.00
15914;BME280;8055;51.930;8.840;2024-02-04T08:22:43;76582.13;;;-145.72;100.00
15914;BME280;8055;51.930;8.840;2024-02-04T08:25:08;76580.03;;;-145.72;100.00
15914;BME280;8055;51.930;8.840;2024-02-04T08:27:37;76590.38;;;-145.72;100.00
15914;BME280;8055;51.930;8.840;2024-02-04T08:30:02;76582.13;;;-145.72;100.00
15914;BME280;8055;51.930;8.840;2024-02-04T08:32:28;76596.59;;;-145.72;100.00
15914;BME280;8055;51.930;8.840;2024-02-04T08:34:53;76598.66;;;-145.72;100.00
15914;BME280;8055;51.930;8.840;2024-02-04T08:37:18;76604.88;;;-145.72;100.00
15914;BME280;8055;51.930;8.840;2024-02-04T08:39:45;76617.28;;;-145.72;100.00
15914;BME280;8055;51.930;8.840;2024-02-04T08:42:10;76627.66;;;-145.72;100.00
15914;BME280;8055;51.930;8.840;2024-02-04T08:44:36;76635.94;;;-145.72;100.00
15914;BME280;8055;51.930;8.840;2024-02-04T08:47:01;76635.94;;;-145.72;100.00
15914;BME280;8055;51.930;8.840;2024-02-04T08:49:29;76635.94;;;-145.72;100.00
15914;BME280;8055;51.930;8.840;2024-02-04T08:51:54;76640.06;;;-145.72;100.00
15914;BME280;8055;51.930;8.840;2024-02-04T08:54:19;76629.72;;;-145.72;100.00
15914;BME280;8055;51.930;8.840;2024-02-04T08:56:45;76642.13;;;-145.72;100.00
15914;BME280;8055;51.930;8.840;2024-02-04T08:59:10;76642.13;;;-145.72;100.00
15914;BME280;8055;51.930;8.840;2024-02-04T09:01:36;76650.41;;;-145.72;100.00
15914;BME280;8055;51.930;8.840;2024-02-04T09:04:01;76644.19;;;-145.72;100.00
15914;BME280;8055;51.930;8.840;2024-02-04T09:06:26;76644.19;;;-145.72;100.00
15914;BME280;8055;51.930;8.840;2024-02-04T09:08:52;76650.41;;;-145.72;100.00
15914;BME280;8055;51.930;8.840;2024-02-04T09:11:18;76640.06;;;-145.72;100.00
15914;BME280;8055;51.930;8.840;2024-02-04T09:13:45;76640.06;;;-145.72;100.00
15914;BME280;8055;51.930;8.840;2024-02-04T09:16:10;76638.00;;;-145.72;100.00
15914;BME280;8055;51.930;8.840;2024-02-04T09:18:36;76648.34;;;-145.72;100.00
15914;BME280;8055;51.930;8.840;2024-02-04T09:21:02;76635.94;;;-145.72;100.00
15914;BME280;8055;51.930;8.840;2024-02-04T09:23:27;76648.34;;;-145.72;100.00
15914;BME280;8055;51.930;8.840;2024-02-04T09:25:53;76642.13;;;-145.72;100.00
15914;BME280;8055;51.930;8.840;2024-02-04T09:28:18;76666.97;;;-145.72;100.00
15914;BME280;8055;51.930;8.840;2024-02-04T09:30:43;76664.91;;;-145.72;100.00
15914;BME280;8055;51.930;8.840;2024-02-04T09:33:09;76664.91;;;-145.72;100.00
15914;BME280;8055;51.930;8.840;2024-02-04T09:35:34;76662.81;;;-145.72;100.00
15914;BME280;8055;51.930;8.840;2024-02-04T09:38:00;76652.47;;;-145.72;100.00
15914;BME280;8055;51.930;8.840;2024-02-04T09:40:25;76652.47;;;-145.72;100.00
15914;BME280;8055;51.930;8.840;2024-02-04T09:42:51;76666.97;;;-145.72;100.00
15914;BME280;8055;51.930;8.840;2024-02-04T09:45:17;76673.19;;;-145.72;100.00
15914;BME280;8055;51.930;8.840;2024-02-04T09:47:44;76669.03;;;-145.72;100.00
15914;BME280;8055;51.930;8.840;2024-02-04T09:50:10;76650.41;;;-145.72;100.00
15914;BME280;8055;51.930;8.840;2024-02-04T09:52:38;76654.56;;;-145.72;100.00
15914;BME280;8055;51.930;8.840;2024-02-04T09:55:05;76658.69;;;-145.72;100.00
15914;BME280;8055;51.930;8.840;2024-02-04T09:57:34;76656.63;;;-145.72;100.00
15914;BME280;8055;51.930;8.840;2024-02-04T10:00:00;76662.81;;;-145.72;100.00
15914;BME280;8055;51.930;8.840;2024-02-04T10:02:27;76666.97;;;-145.72;100.00
15914;BME280;8055;51.930;8.840;2024-02-04T10:04:52;76660.75;;;-145.72;100.00
15914;BME280;8055;51.930;8.840;2024-02-04T10:07:18;76662.81;;;-145.72;100.00
15914;BME280;8055;51.930;8.840;2024-02-04T10:09:44;76666.97;;;-145.72;100.00
15914;BME280;8055;51.930;8.840;2024-02-04T10:12:10;76652.47;;;-145.72;100.00
15914;BME280;8055;51.930;8.840;2024-02-04T10:14:35;76640.06;;;-145.72;100.00
15914;BME280;8055;51.930;8.840;2024-02-04T10:17:01;76648.34;;;-145.72;100.00
15914;BME280;8055;51.930;8.840;2024-02-04T10:19:26;76652.47;;;-145.72;100.00
15914;BME280;8055;51.930;8.840;2024-02-04T10:21:59;76658.69;;;-145.72;100.00
15914;BME280;8055;51.930;8.840;2024-02-04T10:24:25;76658.69;;;-145.72;100.00
15914;BME280;8055;51.930;8.840;2024-02-04T10:26:50;76662.81;;;-145.72;100.00
15914;BME280;8055;51.930;8.840;2024-02-04T10:29:18;76644.19;;;-145.72;100.00
15914;BME280;8055;51.930;8.840;2024-02-04T10:31:43;76638.00;;;-145.72;100.00
15914;BME280;8055;51.930;8.840;2024-02-04T10:34:08;76629.72;;;-145.72;100.00
15914;BME280;8055;51.930;8.840;2024-02-04T10:36:34;76635.94;;;-145.72;100.00
15914;BME280;8055;51.930;8.840;2024-02-04T10:38:59;76623.50;;;-145.72;100.00
15914;BME280;8055;51.930;8.840;2024-02-04T10:41:25;76633.84;;;-145.72;100.00
15914;BME280;8055;51.930;8.840;2024-02-04T10:43:52;76629.72;;;-145.72;100.00
15914;BME280;8055;51.930;8.840;2024-02-04T10:46:19;76640.06;;;-145.72;100.00
15914;BME280;8055;51.930;8.840;2024-02-04T10:48:52;76644.19;;;-145.72;100.00
15914;BME280;8055;51.930;8.840;2024-02-04T10:51:24;76642.13;;;-145.72;100.00
15914;BME280;8055;51.930;8.840;2024-02-04T10:53:51;76650.41;;;-145.72;100.00
15914;BME280;8055;51.930;8.840;2024-02-04T10:56:22;76656.63;;;-145.72;100.00
15914;BME280;8055;51.930;8.840;2024-02-04T10:58:49;76638.00;;;-145.72;100.00
15914;BME280;8055;51.930;8.840;2024-02-04T11:01:14;76631.78;;;-145.72;100.00
15914;BME280;8055;51.930;8.840;2024-02-04T11:03:40;76633.84;;;-145.72;100.00
15914;BME280;8055;51.930;8.840;2024-02-04T11:06:07;76621.44;;;-145.72;100.00
15914;BME280;8055;51.930;8.840;2024-02-04T11:08:34;76609.00;;;-145.72;100.00
15914;BME280;8055;51.930;8.840;2024-02-04T11:11:00;76588.31;;;-145.72;100.00
15914;BME280;8055;51.930;8.840;2024-02-04T11:13:25;76590.38;;;-145.72;100.00
15914;BME280;8055;51.930;8.840;2024-02-04T11:15:53;76590.38;;;-145.72;100.00
15914;BME280;8055;51.930;8.840;2024-02-04T11:18:36;76571.75;;;-145.72;100.00
15914;BME280;8055;51.930;8.840;2024-02-04T11:21:15;76567.63;;;-145.72;100.00
15914;BME280;8055;51.930;8.840;2024-02-04T11:26:43;76538.66;;;-145.72;100.00
15914;BME280;8055;51.930;8.840;2024-02-04T11:29:09;76528.31;;;-145.72;100.00
15914;BME280;8055;51.930;8.840;2024-02-04T11:31:38;76520.03;;;-145.72;100.00
15914;BME280;8055;51.930;8.840;2024-02-04T11:34:05;76526.22;;;-145.72;100.00
15914;BME280;8055;51.930;8.840;2024-02-04T11:36:38;76509.69;;;-145.72;100.00
15914;BME280;8055;51.930;8.840;2024-02-04T11:39:14;76515.88;;;-145.72;100.00
15914;BME280;8055;51.930;8.840;2024-02-04T11:41:49;76515.88;;;-145.72;100.00
15914;BME280;8055;51.930;8.840;2024-02-04T11:44:22;76517.97;;;-145.72;100.00
15914;BME280;8055;51.930;8.840;2024-02-04T11:46:48;76522.09;;;-145.72;100.00
15914;BME280;8055;51.930;8.840;2024-02-04T11:49:18;76524.16;;;-145.72;100.00
15914;BME280;8055;51.930;8.840;2024-02-04T11:51:48;76511.75;;;-145.72;100.00
15914;BME280;8055;51.930;8.840;2024-02-04T11:54:16;76507.59;;;-145.72;100.00
15914;BME280;8055;51.930;8.840;2024-02-04T11:56:45;76515.88;;;-145.72;100.00
15914;BME280;8055;51.930;8.840;2024-02-04T11:59:11;76515.88;;;-145.72;100.00
15914;BME280;8055;51.930;8.840;2024-02-04T12:01:38;76524.16;;;-145.72;100.00
15914;BME280;8055;51.930;8.840;2024-02-04T12:04:15;76524.16;;;-145.72;100.00
15914;BME280;8055;51.930;8.840;2024-02-04T12:06:41;76536.59;;;-145.72;100.00
15914;BME280;8055;51.930;8.840;2024-02-04T12:09:08;76536.59;;;-145.72;100.00
15914;BME280;8055;51.930;8.840;2024-02-04T12:11:37;76536.59;;;-145.72;100.00
15914;BME280;8055;51.930;8.840;2024-02-04T12:14:04;76530.38;;;-145.72;100.00
15914;BME280;8055;51.930;8.840;2024-02-04T12:16:35;76540.72;;;-145.72;100.00
15914;BME280;8055;51.930;8.840;2024-02-04T12:19:02;76530.38;;;-145.72;100.00
15914;BME280;8055;51.930;8.840;2024-02-04T12:21:31;76532.44;;;-145.72;100.00
15914;BME280;8055;51.930;8.840;2024-02-04T12:23:58;76536.59;;;-145.72;100.00
15914;BME280;8055;51.930;8.840;2024-02-04T12:26:23;76540.72;;;-145.72;100.00
15914;BME280;8055;51.930;8.840;2024-02-04T12:28:50;76538.66;;;-145.72;100.00
15914;BME280;8055;51.930;8.840;2024-02-04T12:31:25;76540.72;;;-145.72;100.00
15914;BME280;8055;51.930;8.840;2024-02-04T12:33:55;76538.66;;;-145.72;100.00
15914;BME280;8055;51.930;8.840;2024-02-04T12:36:30;76505.53;;;-145.72;100.00
15914;BME280;8055;51.930;8.840;2024-02-04T12:39:00;76520.03;;;-145.72;100.00